This is the latest recevied weather packets stored in our database for station/object LRTR. If no packets are shown the sender has not sent any weather packets the latest 10 day(s).
| Time | Temp. | Humidity | Pressure | Rain* | Wind** | Luminosity | Snow |
|---|---|---|---|---|---|---|---|
| 1777942986 | 7.22° C | 81% | 1015 hPa | - | - | - | - |
| 1777942085 | 7.22° C | 81% | 1016 hPa | - | - | - | - |
| 1777941185 | 7.22° C | 81% | 1016 hPa | - | - | - | - |
| 1777940285 | 6.11° C | 87% | 1016 hPa | - | - | - | - |
| 1777939385 | 6.11° C | 87% | 1016 hPa | - | - | - | - |
| 1777938485 | 7.22° C | 81% | 1016 hPa | - | - | - | - |
| 1777937585 | 7.22° C | 81% | 1016 hPa | - | - | - | - |
| 1777936685 | 7.22° C | 87% | 1016 hPa | - | - | - | - |
| 1777935785 | 7.22° C | 87% | 1016 hPa | - | - | - | - |
| 1777934885 | 6.11° C | 87% | 1016 hPa | - | - | - | - |
| 1777933985 | 6.11° C | 87% | 1016 hPa | - | - | - | - |
| 1777933108 | 7.78° C | 76% | 1016 hPa | - | - | - | - |
| 1777932185 | 7.78° C | 76% | 1016 hPa | - | - | - | - |
| 1777931285 | 8.89° C | 71% | 1016 hPa | - | - | - | - |
| 1777930401 | 8.89° C | 71% | 1016 hPa | - | - | - | - |
| 1777929485 | 8.89° C | 76% | 1016 hPa | - | - | - | - |
| 1777928585 | 8.89° C | 76% | 1016 hPa | - | - | - | - |
| 1777927685 | 11.11° C | 67% | 1016 hPa | - | - | - | - |
| 1777926786 | 11.11° C | 67% | 1016 hPa | - | - | - | - |
| 1777925885 | 16.11° C | 45% | 1016 hPa | - | - | - | - |
| 1777924985 | 16.11° C | 45% | 1016 hPa | - | - | - | - |
| 1777924085 | 15° C | 51% | 1016 hPa | - | - | - | - |
| 1777923185 | 15° C | 51% | 1016 hPa | - | - | - | - |
| 1777922285 | 16.11° C | 45% | 1016 hPa | - | - | - | - |
| 1777921385 | 16.11° C | 45% | 1016 hPa | - | - | - | - |
* Rain since midnight (hover to see other rain measurements)
** Current wind speed in m/s (hover to see current wind gust speed)